createdAt,value
2016-08-17T00:03:20.845Z,1010.91
2016-08-17T00:08:18.361Z,1010.92
2016-08-17T00:13:16.126Z,1010.93
2016-08-17T00:18:13.849Z,1010.89
2016-08-17T00:23:11.522Z,1010.72
2016-08-17T00:28:09.006Z,1010.77
2016-08-17T00:33:06.701Z,1010.83
2016-08-17T00:38:04.374Z,1010.83
2016-08-17T00:43:02.005Z,1010.83
2016-08-17T00:47:59.744Z,1010.81
2016-08-17T00:52:57.656Z,1010.82
2016-08-17T00:57:55.280Z,1010.84
2016-08-17T01:02:53.101Z,1010.79
2016-08-17T01:07:51.045Z,1010.77
2016-08-17T01:12:48.660Z,1010.76
2016-08-17T01:17:46.246Z,1010.74
2016-08-17T01:22:43.908Z,1010.67
2016-08-17T01:27:41.755Z,1010.70
2016-08-17T01:32:39.314Z,1010.60
2016-08-17T01:37:36.994Z,1010.53
2016-08-17T01:42:34.820Z,1010.52
2016-08-17T01:47:32.347Z,1010.50
2016-08-17T01:52:29.962Z,1010.52
2016-08-17T01:57:27.640Z,1010.54
2016-08-17T02:02:25.353Z,1010.45
2016-08-17T02:07:23.092Z,1010.46
2016-08-17T02:12:20.940Z,1010.50
2016-08-17T02:17:18.566Z,1010.44
2016-08-17T02:22:16.338Z,1010.51
2016-08-17T02:27:14.622Z,1010.44
2016-08-17T02:32:12.087Z,1010.40
2016-08-17T02:37:10.752Z,1010.38
2016-08-17T02:42:08.244Z,1010.43
2016-08-17T02:47:06.044Z,1010.41
2016-08-17T02:52:03.786Z,1010.30
2016-08-17T02:57:01.785Z,1010.45
2016-08-17T03:01:59.484Z,1010.32
2016-08-17T03:06:57.174Z,1010.28
2016-08-17T03:11:54.949Z,1010.21
2016-08-17T03:16:52.667Z,1010.15
2016-08-17T03:21:50.343Z,1010.23
2016-08-17T03:26:48.071Z,1010.21
2016-08-17T03:31:45.798Z,1010.21
2016-08-17T03:36:43.649Z,1010.20
2016-08-17T03:41:41.247Z,1010.14
2016-08-17T03:46:38.909Z,1010.14
2016-08-17T03:51:36.692Z,1010.15
2016-08-17T03:56:34.450Z,1010.17
2016-08-17T04:01:32.146Z,1010.16
2016-08-17T04:06:29.739Z,1010.18
2016-08-17T04:11:27.450Z,1010.13
2016-08-17T04:16:25.105Z,1010.17
2016-08-17T04:21:22.887Z,1010.11
2016-08-17T04:26:20.525Z,1010.16
2016-08-17T04:31:18.426Z,1010.06
2016-08-17T04:36:16.123Z,1010.14
2016-08-17T04:41:13.806Z,1010.03
2016-08-17T04:46:11.424Z,1010.10
2016-08-17T04:51:09.082Z,1010.09
2016-08-17T04:56:06.907Z,1010.09
2016-08-17T05:01:04.449Z,1010.09
2016-08-17T05:06:02.135Z,1010.10
2016-08-17T05:10:59.818Z,1010.07
2016-08-17T05:15:57.651Z,1010.05
2016-08-17T05:20:55.350Z,1010.05
2016-08-17T05:25:53.372Z,1010.07
2016-08-17T05:30:51.267Z,1010.06
2016-08-17T05:35:49.243Z,1010.05
2016-08-17T05:40:46.958Z,1010.06
2016-08-17T05:45:44.646Z,1010.07
2016-08-17T05:50:42.248Z,1009.93
2016-08-17T05:55:40.086Z,1010.12
2016-08-17T06:00:38.051Z,1010.05
2016-08-17T06:05:35.847Z,1009.97
2016-08-17T06:10:33.764Z,1009.97
2016-08-17T06:15:31.509Z,1009.99
2016-08-17T06:20:29.424Z,1009.94
2016-08-17T06:25:27.229Z,1009.86
2016-08-17T06:30:24.975Z,1009.92
2016-08-17T06:35:22.642Z,1009.83
2016-08-17T06:40:20.171Z,1009.84
2016-08-17T06:45:17.591Z,1009.87
2016-08-17T06:50:15.189Z,1009.88
2016-08-17T06:55:12.839Z,1009.97
2016-08-17T07:00:10.412Z,1009.89
2016-08-17T07:05:07.847Z,1009.96
2016-08-17T07:10:05.606Z,1010.06
2016-08-17T07:15:03.361Z,1010.01
2016-08-17T07:20:01.097Z,1010.00
2016-08-17T07:24:58.864Z,1009.95
2016-08-17T07:29:56.803Z,1010.01
2016-08-17T07:34:54.554Z,1009.91
2016-08-17T07:39:52.200Z,1009.81
2016-08-17T07:44:50.130Z,1009.91
2016-08-17T07:49:47.728Z,1009.82
2016-08-17T07:54:45.382Z,1009.77
2016-08-17T07:59:43.125Z,1009.81
2016-08-17T08:04:40.927Z,1009.84
2016-08-17T08:09:38.936Z,1009.74
2016-08-17T08:14:37.423Z,1009.66
2016-08-17T08:19:35.760Z,1009.67
2016-08-17T08:24:34.108Z,1009.69
2016-08-17T08:29:32.142Z,1009.67
2016-08-17T08:34:30.511Z,1009.68
2016-08-17T08:39:28.443Z,1009.65
2016-08-17T08:44:26.327Z,1009.52
2016-08-17T08:49:24.050Z,1009.49
2016-08-17T08:54:21.754Z,1009.45
2016-08-17T08:59:19.645Z,1009.58
2016-08-17T09:04:17.375Z,1009.45
2016-08-17T09:09:14.809Z,1009.55
2016-08-17T09:14:12.691Z,1009.43
2016-08-17T09:19:10.000Z,1009.42
2016-08-17T09:24:07.670Z,1009.33
2016-08-17T09:29:05.431Z,1009.32
2016-08-17T09:34:02.783Z,1009.40
2016-08-17T09:39:00.398Z,1009.20
2016-08-17T09:43:58.099Z,1009.23
2016-08-17T09:48:55.597Z,1009.16
2016-08-17T09:53:52.995Z,1009.22
2016-08-17T09:58:50.650Z,1009.25
2016-08-17T10:03:48.459Z,1009.27
2016-08-17T10:08:46.110Z,1009.16
2016-08-17T10:13:43.616Z,1009.04
2016-08-17T10:18:41.289Z,1009.09
2016-08-17T10:23:38.973Z,1009.02
2016-08-17T10:28:36.675Z,1009.02
2016-08-17T10:33:34.298Z,1009.05
2016-08-17T10:38:31.939Z,1008.89
2016-08-17T10:43:29.545Z,1008.83
2016-08-17T10:48:27.260Z,1008.84
2016-08-17T10:53:25.074Z,1008.93
2016-08-17T10:58:22.737Z,1008.84
2016-08-17T11:03:20.767Z,1008.88
2016-08-17T11:08:18.379Z,1008.76
2016-08-17T11:13:16.243Z,1008.68
2016-08-17T11:18:13.784Z,1008.75
2016-08-17T11:23:11.289Z,1008.62
2016-08-17T11:28:09.090Z,1008.75
2016-08-17T11:33:07.007Z,1008.66
2016-08-17T11:38:04.689Z,1008.66
2016-08-17T11:43:02.442Z,1008.48
2016-08-17T11:48:00.120Z,1008.55
2016-08-17T11:52:57.774Z,1008.45
2016-08-17T11:57:55.773Z,1008.46
2016-08-17T12:02:53.467Z,1008.39
2016-08-17T12:07:51.209Z,1008.30
2016-08-17T12:12:48.896Z,1008.41
2016-08-17T12:17:46.784Z,1008.33
2016-08-17T12:22:44.498Z,1008.31
2016-08-17T12:27:42.176Z,1008.29
2016-08-17T12:32:39.690Z,1008.24
2016-08-17T12:37:37.447Z,1008.28
2016-08-17T12:42:35.068Z,1008.24
2016-08-17T12:47:32.578Z,1008.13
2016-08-17T12:52:30.257Z,1008.13
2016-08-17T12:57:27.934Z,1008.17
2016-08-17T13:02:25.658Z,1008.12
2016-08-17T13:07:23.508Z,1007.90
2016-08-17T13:12:21.348Z,1008.00
2016-08-17T13:17:19.289Z,1007.89
2016-08-17T13:22:16.985Z,1007.88
2016-08-17T13:27:14.722Z,1007.79
2016-08-17T13:32:12.512Z,1007.80
2016-08-17T13:37:10.135Z,1007.74
2016-08-17T13:42:08.067Z,1007.70
2016-08-17T13:47:05.665Z,1007.58
2016-08-17T13:52:03.366Z,1007.69
2016-08-17T13:57:01.027Z,1007.68
2016-08-17T14:01:58.893Z,1007.55
2016-08-17T14:06:56.456Z,1007.41
2016-08-17T14:11:54.162Z,1007.45
2016-08-17T14:16:51.732Z,1007.31
2016-08-17T14:21:49.592Z,1007.24
2016-08-17T14:26:47.203Z,1007.24
2016-08-17T14:31:45.127Z,1007.16
2016-08-17T14:36:42.766Z,1007.18
2016-08-17T14:41:40.539Z,1007.13
2016-08-17T14:46:38.147Z,1007.18
2016-08-17T14:51:35.879Z,1007.19
2016-08-17T14:56:33.433Z,1007.15
2016-08-17T15:01:31.297Z,1007.19
2016-08-17T15:06:29.026Z,1007.09
2016-08-17T15:11:26.735Z,1007.10
2016-08-17T15:16:24.645Z,1007.09
2016-08-17T15:21:22.281Z,1007.02
2016-08-17T15:26:20.248Z,1006.96
2016-08-17T15:31:17.718Z,1006.96
2016-08-17T15:36:15.704Z,1006.87
2016-08-17T15:41:13.368Z,1006.82
2016-08-17T15:46:11.232Z,1006.80
2016-08-17T15:51:08.886Z,1006.87
2016-08-17T15:56:06.533Z,1006.78
2016-08-17T16:01:04.565Z,1006.74
2016-08-17T16:06:02.169Z,1006.80
2016-08-17T16:10:59.871Z,1006.73
2016-08-17T16:15:57.446Z,1006.69
2016-08-17T16:20:55.072Z,1006.66
2016-08-17T16:25:52.684Z,1006.58
2016-08-17T16:30:50.411Z,1006.54
2016-08-17T16:35:48.324Z,1006.56
2016-08-17T16:40:45.865Z,1006.57
2016-08-17T16:45:43.579Z,1006.58
2016-08-17T16:50:41.495Z,1006.61
2016-08-17T16:55:39.159Z,1006.55
2016-08-17T17:00:36.881Z,1006.49
2016-08-17T17:05:34.573Z,1006.43
2016-08-17T17:10:32.207Z,1006.47
2016-08-17T17:15:29.915Z,1006.46
2016-08-17T17:20:27.633Z,1006.40
2016-08-17T17:25:25.265Z,1006.40
2016-08-17T17:30:23.028Z,1006.33
2016-08-17T17:35:20.636Z,1006.44
2016-08-17T17:40:18.481Z,1006.42
2016-08-17T17:45:16.074Z,1006.40
2016-08-17T17:50:14.005Z,1006.39
2016-08-17T17:55:11.584Z,1006.33
2016-08-17T18:00:09.218Z,1006.35
2016-08-17T18:05:06.904Z,1006.27
2016-08-17T18:10:04.789Z,1006.34
2016-08-17T18:15:02.327Z,1006.27
2016-08-17T18:20:00.087Z,1006.32
2016-08-17T18:24:57.803Z,1006.38
2016-08-17T18:29:55.561Z,1006.44
2016-08-17T18:34:53.270Z,1006.40
2016-08-17T18:39:51.119Z,1006.39
2016-08-17T18:44:48.689Z,1006.37
2016-08-17T18:49:46.350Z,1006.42
2016-08-17T18:54:43.997Z,1006.38
2016-08-17T18:59:41.800Z,1006.45
2016-08-17T19:04:39.482Z,1006.45
2016-08-17T19:09:37.260Z,1006.55
2016-08-17T19:14:35.155Z,1006.47
2016-08-17T19:19:32.920Z,1006.54
2016-08-17T19:24:30.586Z,1006.57
2016-08-17T19:29:28.701Z,1006.60
2016-08-17T19:34:26.281Z,1006.52
2016-08-17T19:39:24.013Z,1006.56
2016-08-17T19:44:21.754Z,1006.54
2016-08-17T19:49:19.325Z,1006.55
2016-08-17T19:54:17.144Z,1006.56
2016-08-17T19:59:14.742Z,1006.60
2016-08-17T20:04:12.550Z,1006.63
2016-08-17T20:09:11.290Z,1006.55
2016-08-17T20:14:08.747Z,1006.59
2016-08-17T20:19:06.544Z,1006.62
2016-08-17T20:24:04.105Z,1006.65
2016-08-17T20:29:01.885Z,1006.58
2016-08-17T20:33:59.850Z,1006.68
2016-08-17T20:38:57.383Z,1006.68
2016-08-17T20:43:55.158Z,1006.65
2016-08-17T20:48:52.704Z,1006.67
2016-08-17T20:53:50.452Z,1006.59
2016-08-17T20:58:48.189Z,1006.60
2016-08-17T21:03:45.882Z,1006.60
2016-08-17T21:08:43.812Z,1006.59
2016-08-17T21:13:41.490Z,1006.53
2016-08-17T21:18:39.046Z,1006.52
2016-08-17T21:23:36.988Z,1006.53
2016-08-17T21:28:34.617Z,1006.48
2016-08-17T21:33:32.221Z,1006.45
2016-08-17T21:38:30.054Z,1006.49
2016-08-17T21:43:27.640Z,1006.43
2016-08-17T21:48:25.591Z,1006.44
2016-08-17T21:53:23.192Z,1006.39
2016-08-17T21:58:20.805Z,1006.33
2016-08-17T22:03:18.506Z,1006.38
2016-08-17T22:08:16.089Z,1006.36
2016-08-17T22:13:13.914Z,1006.37
2016-08-17T22:18:11.652Z,1006.28
2016-08-17T22:23:09.358Z,1006.27
2016-08-17T22:28:07.204Z,1006.31
2016-08-17T22:33:04.799Z,1006.34
2016-08-17T22:38:02.504Z,1006.31
2016-08-17T22:43:00.137Z,1006.21
2016-08-17T22:47:57.931Z,1006.25
2016-08-17T22:52:55.539Z,1006.23
2016-08-17T22:57:53.173Z,1006.27
2016-08-17T23:02:50.977Z,1006.22
2016-08-17T23:07:49.433Z,1006.18
2016-08-17T23:12:46.843Z,1006.14
2016-08-17T23:17:44.523Z,1006.15
2016-08-17T23:22:42.298Z,1006.09
2016-08-17T23:27:40.157Z,1006.06
2016-08-17T23:32:37.977Z,1006.10
2016-08-17T23:37:35.655Z,1006.06
2016-08-17T23:42:33.544Z,1006.07
2016-08-17T23:47:31.206Z,1005.99
2016-08-17T23:52:29.129Z,1006.03
2016-08-17T23:57:26.833Z,1005.96
